ADDS METAR Data INFO
IDs: Format: Raw Decoded Include TAF

Data at: 0750 UTC 23 Jul 2018

KMEI 230658Z AUTO 21003KT 10SM CLR 23/21 A2982 RMK AO2 SLP093 T02280211
KMEI 230558Z AUTO 00000KT 10SM CLR 23/22 A2982 RMK AO2 SLP094 T02330217 10306 20233 403440233 56009
KMEI 230458Z AUTO 00000KT 10SM CLR 24/22 A2983 RMK AO2 SLP097 T02390217
KMEI 230358Z AUTO 00000KT 10SM CLR 24/22 A2984 RMK AO2 SLP100 T02440217
KMEI 230258Z 00000KT 10SM CLR 26/21 A2985 RMK AO2 SLP103 T02610211 51017
KMEI 230158Z 29005KT 10SM CLR 27/21 A2984 RMK AO2 SLP098 T02670211
KMEI 230058Z 30006KT 10SM CLR 28/21 A2982 RMK AO2 SLP092 T02830206
KMEI 222358Z 30007KT 10SM CLR 31/21 A2980 RMK AO2 SLP086 T03060211 10344 20306 53006
KMEI 222258Z 29004KT 10SM CLR 32/22 A2979 RMK AO2 SLP082 T03220222
KMEI 222158Z 34006KT 10SM CLR 33/22 A2978 RMK AO2 SLP079 T03330217
KMEI 222058Z 32008KT 10SM CLR 33/21 A2978 RMK AO2 SLP080 T03330211 56014
KMEI 221958Z 31009KT 10SM CLR 34/22 A2979 RMK AO2 SLP083 T03440217
KMEI 221858Z 31009KT 10SM CLR 34/23 A2980 RMK AO2 SLP087 T03390233
KMEI 221758Z 33008KT 10SM FEW027 FEW035 SCT042 34/24 A2982 RMK AO2 SLP094 T03390244 10339 20261 56010
KMEI 221712Z 32007KT 10SM BKN025 BKN033 32/26 A2984 RMK AO2 T03220256
KMEI 221658Z 29008KT 10SM SCT024 SCT040 SCT070 33/26 A2983 RMK AO2 SLP097 T03280256
KMEI 221558Z 28009KT 10SM BKN030 32/25 A2985 RMK AO2 LTG DSNT E SLP104 T03220250
KMEI 221458Z 29009KT 10SM CLR 32/24 A2985 RMK AO2 SLP103 T03170244 58007
KMEI 221358Z 27004KT 10SM FEW060 30/24 A2986 RMK AO2 SLP107 T03000244
KMEI 221258Z 27005KT 10SM FEW060 28/24 A2986 RMK AO2 SLP108 T02780239
KMEI 221158Z 18004KT 8SM FEW120 26/24 A2987 RMK AO2 SLP110 70001 T02610239 10272 20256 51006
KMEI 221058Z 20005KT 8SM SCT120 26/24 A2986 RMK AO2 SLP107 T02560239
KMEI 220958Z AUTO 20004KT 9SM CLR 26/24 A2986 RMK AO2 SLP106 T02610239
KMEI 220858Z AUTO 21006KT 10SM CLR 26/24 A2985 RMK AO2 SLP103 T02610244 55004
KMEI 220758Z AUTO 18003KT 10SM FEW040 27/25 A2984 RMK AO2 SLP101 T02670250
KMEI 220658Z AUTO 00000KT 10SM SCT037 27/25 A2986 RMK AO2 SLP105 T02670250
KMEI 220558Z AUTO 00000KT 10SM CLR 27/25 A2986 RMK AO2 SLP108 T02720250 10333 20272 403500261 58001
KMEI 220458Z AUTO 00000KT 10SM CLR 28/26 A2987 RMK AO2 SLP111 T02780256
KMEI 220358Z AUTO 19003KT 10SM CLR 28/26 A2987 RMK AO2 SLP109 T02830261
KMEI 220258Z 00000KT 10SM CLR 29/26 A2987 RMK AO2 SLP109 T02890261 53008
KMEI 220158Z 22003KT 10SM CLR 29/26 A2985 RMK AO2 SLP104 T02940261
KMEI 220058Z 00000KT 10SM CLR 31/27 A2984 RMK AO2 SLP101 T03060267
KMEI 212358Z 30003KT 10SM FEW050 33/26 A2985 RMK AO2 SLP101 T03330256 10350 20317 58010
KMEI 212258Z 28004KT 10SM CLR 34/24 A2986 RMK AO2 SLP107 T03440239
KMEI 212158Z 26007KT 10SM CLR 34/23 A2986 RMK AO2 SLP108 T03440233
KMEI 212058Z AUTO 26008KT 10SM CLR 34/22 A2988 RMK AO2 SLP112 T03440222 58008
KMEI 211958Z 28005KT 10SM CLR 33/23 A2989 RMK AO2 SLP116 T03330228